createdAt,value
2023-03-07T00:00:51.413Z,106.67
2023-03-07T00:03:20.794Z,100.23
2023-03-07T00:05:50.278Z,105.00
2023-03-07T00:08:18.460Z,99.37
2023-03-07T00:10:46.606Z,100.13
2023-03-07T00:13:14.672Z,102.87
2023-03-07T00:15:42.769Z,96.40
2023-03-07T00:18:10.767Z,108.67
2023-03-07T00:20:38.795Z,98.10
2023-03-07T00:23:08.487Z,112.37
2023-03-07T00:25:36.832Z,125.43
2023-03-07T00:28:04.910Z,117.80
2023-03-07T00:30:32.919Z,115.40
2023-03-07T00:33:01.010Z,102.13
2023-03-07T00:35:29.029Z,137.77
2023-03-07T00:37:57.017Z,118.80
2023-03-07T00:40:26.589Z,114.80
2023-03-07T00:42:54.783Z,126.43
2023-03-07T00:45:22.940Z,115.30
2023-03-07T00:47:51.035Z,128.40
2023-03-07T00:50:19.351Z,127.73
2023-03-07T00:52:47.637Z,114.37
2023-03-07T00:55:15.923Z,140.37
2023-03-07T00:57:45.406Z,109.67
2023-03-07T01:00:14.224Z,117.50
2023-03-07T01:02:42.462Z,120.70
2023-03-07T01:05:11.092Z,148.80
2023-03-07T01:07:39.150Z,129.93
2023-03-07T01:10:08.032Z,144.77
2023-03-07T01:12:36.726Z,138.90
2023-03-07T01:15:08.007Z,136.40
2023-03-07T01:17:36.105Z,129.17
2023-03-07T01:20:07.156Z,121.57
2023-03-07T01:22:35.274Z,135.33
2023-03-07T01:25:03.942Z,133.50
2023-03-07T01:27:32.005Z,125.20
2023-03-07T01:30:00.450Z,119.57
2023-03-07T01:32:30.004Z,129.63
2023-03-07T01:34:58.392Z,134.67
2023-03-07T01:37:27.168Z,122.13
2023-03-07T01:39:55.705Z,125.30
2023-03-07T01:42:23.846Z,120.50
2023-03-07T01:45:04.659Z,122.90
2023-03-07T01:47:35.618Z,126.67
2023-03-07T01:50:07.300Z,131.80
2023-03-07T01:52:39.469Z,119.50
2023-03-07T01:55:12.774Z,120.73
2023-03-07T01:57:44.227Z,129.27
2023-03-07T02:00:18.881Z,119.87
2023-03-07T02:02:58.731Z,119.63
2023-03-07T02:05:32.685Z,138.03
2023-03-07T02:08:03.309Z,112.13
2023-03-07T02:10:34.048Z,122.27
2023-03-07T02:13:02.223Z,105.47
2023-03-07T02:15:30.388Z,108.97
2023-03-07T02:18:00.500Z,125.07
2023-03-07T02:20:36.583Z,123.20
2023-03-07T02:23:06.069Z,114.97
2023-03-07T02:25:42.220Z,127.93
2023-03-07T02:28:14.856Z,133.50
2023-03-07T02:30:55.072Z,124.77
2023-03-07T02:33:25.124Z,113.73
2023-03-07T02:35:57.909Z,111.37
2023-03-07T02:38:26.769Z,114.23
2023-03-07T02:40:56.399Z,109.10
2023-03-07T02:43:26.415Z,110.87
2023-03-07T02:45:55.916Z,109.10
2023-03-07T02:48:24.180Z,96.50
2023-03-07T02:50:52.448Z,83.63
2023-03-07T02:53:20.589Z,90.63
2023-03-07T02:55:48.760Z,87.90
2023-03-07T02:58:16.812Z,102.13
2023-03-07T03:00:46.400Z,97.87
2023-03-07T03:03:14.491Z,91.20
2023-03-07T03:05:42.552Z,89.03
2023-03-07T03:08:10.794Z,76.63
2023-03-07T03:10:38.914Z,64.50
2023-03-07T03:13:07.544Z,89.83
2023-03-07T03:15:35.862Z,87.40
2023-03-07T03:18:05.977Z,90.20
2023-03-07T03:20:34.207Z,87.80
2023-03-07T03:23:02.342Z,80.13
2023-03-07T03:25:30.379Z,82.87
2023-03-07T03:27:58.478Z,76.93
2023-03-07T03:30:26.886Z,61.43
2023-03-07T03:32:56.525Z,68.47
2023-03-07T03:35:25.922Z,76.33
2023-03-07T03:37:53.990Z,71.23
2023-03-07T03:40:22.293Z,72.67
2023-03-07T03:42:51.109Z,76.40
2023-03-07T03:45:19.718Z,66.83
2023-03-07T03:47:48.610Z,58.57
2023-03-07T03:50:16.776Z,69.00
2023-03-07T03:52:46.307Z,73.17
2023-03-07T03:55:14.639Z,69.90
2023-03-07T03:57:42.729Z,66.30
2023-03-07T04:00:14.911Z,65.47
2023-03-07T04:02:43.247Z,65.43
2023-03-07T04:05:11.703Z,61.90
2023-03-07T04:07:40.023Z,59.30
2023-03-07T04:10:11.116Z,53.20
2023-03-07T04:12:39.126Z,57.67
2023-03-07T04:15:08.533Z,58.07
2023-03-07T04:17:37.231Z,49.10
2023-03-07T04:20:06.712Z,62.97
2023-03-07T04:22:34.704Z,49.77
2023-03-07T04:25:04.278Z,75.60
2023-03-07T04:27:35.335Z,57.37
2023-03-07T04:30:03.496Z,61.20
2023-03-07T04:32:31.806Z,80.57
2023-03-07T04:34:59.940Z,64.83
2023-03-07T04:37:27.937Z,67.10
2023-03-07T04:39:55.972Z,65.97
2023-03-07T04:42:24.122Z,67.77
2023-03-07T04:44:53.871Z,86.43
2023-03-07T04:47:22.020Z,76.17
2023-03-07T04:49:50.055Z,68.00
2023-03-07T04:52:18.216Z,61.43
2023-03-07T04:54:46.252Z,62.97
2023-03-07T04:57:14.340Z,58.67
2023-03-07T04:59:42.396Z,68.07
2023-03-07T05:02:14.181Z,62.20
2023-03-07T05:04:42.374Z,64.00
2023-03-07T05:07:10.960Z,67.60
2023-03-07T05:09:39.248Z,58.17
2023-03-07T05:12:07.700Z,71.83
2023-03-07T05:14:35.851Z,50.37
2023-03-07T05:17:03.855Z,57.30
2023-03-07T05:19:33.251Z,57.03
2023-03-07T05:22:01.357Z,49.53
2023-03-07T05:24:29.342Z,48.33
2023-03-07T05:26:57.363Z,66.83
2023-03-07T05:29:25.401Z,53.10
2023-03-07T05:31:55.969Z,48.37
2023-03-07T05:34:24.046Z,48.73
2023-03-07T05:36:55.730Z,40.83
2023-03-07T05:39:24.177Z,43.80
2023-03-07T05:41:53.684Z,41.10
2023-03-07T05:44:21.972Z,22.33
2023-03-07T05:46:49.996Z,32.83
2023-03-07T05:49:18.080Z,34.33
2023-03-07T05:51:46.068Z,40.13
2023-03-07T05:54:15.459Z,69.93
2023-03-07T05:56:43.586Z,48.33
2023-03-07T05:59:22.898Z,58.93
2023-03-07T06:01:51.110Z,30.27
2023-03-07T06:04:28.515Z,34.87
2023-03-07T06:06:56.669Z,20.20
2023-03-07T06:09:26.115Z,24.17
2023-03-07T06:11:54.162Z,30.53
2023-03-07T06:14:22.342Z,32.47
2023-03-07T06:16:50.420Z,23.10
2023-03-07T06:19:18.709Z,29.47
2023-03-07T06:21:46.917Z,24.27
2023-03-07T06:24:15.095Z,28.40
2023-03-07T06:26:44.518Z,42.77
2023-03-07T06:29:16.115Z,41.93
2023-03-07T06:31:45.596Z,31.07
2023-03-07T06:34:15.251Z,33.60
2023-03-07T06:36:43.412Z,31.10
2023-03-07T06:39:15.179Z,38.17
2023-03-07T06:41:44.570Z,46.47
2023-03-07T06:44:13.851Z,48.50
2023-03-07T06:46:41.854Z,42.03
2023-03-07T06:49:13.312Z,62.30
2023-03-07T06:51:41.610Z,75.30
2023-03-07T06:54:09.754Z,52.47
2023-03-07T06:56:37.838Z,42.80
2023-03-07T06:59:07.529Z,65.43
2023-03-07T07:01:36.107Z,68.77
2023-03-07T07:04:04.198Z,65.67
2023-03-07T07:06:34.190Z,36.83
2023-03-07T07:09:02.227Z,84.70
2023-03-07T07:11:30.277Z,48.33
2023-03-07T07:13:58.641Z,71.90
2023-03-07T07:16:29.177Z,64.97
2023-03-07T07:18:57.193Z,74.23
2023-03-07T07:21:25.748Z,120.83
2023-03-07T07:23:53.831Z,72.40
2023-03-07T07:26:22.047Z,86.17
2023-03-07T07:28:50.128Z,58.23
2023-03-07T07:31:18.244Z,64.63
2023-03-07T07:33:51.960Z,42.93
2023-03-07T07:36:22.061Z,88.20
2023-03-07T07:38:50.910Z,55.87
2023-03-07T07:41:19.362Z,46.07
2023-03-07T07:43:48.479Z,49.47
2023-03-07T07:46:16.609Z,68.33
2023-03-07T07:48:49.066Z,47.43
2023-03-07T07:51:17.431Z,52.93
2023-03-07T07:53:47.798Z,55.27
2023-03-07T07:56:15.847Z,59.67
2023-03-07T07:58:46.887Z,61.47
2023-03-07T08:01:17.106Z,52.73
2023-03-07T08:03:47.003Z,52.73
2023-03-07T08:06:20.473Z,32.87
2023-03-07T08:08:49.273Z,58.03
2023-03-07T08:11:17.899Z,41.57
2023-03-07T08:13:46.122Z,31.60
2023-03-07T08:16:15.978Z,41.17
2023-03-07T08:18:44.886Z,39.17
2023-03-07T08:21:12.969Z,41.57
2023-03-07T08:23:42.274Z,41.37
2023-03-07T08:26:11.151Z,48.27
2023-03-07T08:28:41.473Z,48.63
2023-03-07T08:31:13.026Z,49.13
2023-03-07T08:33:41.387Z,47.60
2023-03-07T08:36:10.513Z,38.23
2023-03-07T08:38:40.629Z,39.90
2023-03-07T08:41:10.873Z,49.83
2023-03-07T08:43:40.365Z,48.37
2023-03-07T08:46:08.526Z,33.63
2023-03-07T08:48:36.637Z,57.07
2023-03-07T08:51:09.553Z,37.27
2023-03-07T08:53:38.873Z,50.17
2023-03-07T08:56:08.338Z,55.73
2023-03-07T08:58:38.155Z,48.70
2023-03-07T09:01:07.253Z,43.40
2023-03-07T09:03:36.172Z,46.07
2023-03-07T09:06:05.401Z,18.30
2023-03-07T09:08:33.440Z,52.80
2023-03-07T09:11:03.712Z,38.50
2023-03-07T09:13:35.946Z,41.17
2023-03-07T09:16:08.974Z,70.37
2023-03-07T09:18:37.829Z,47.00
2023-03-07T09:21:06.941Z,68.43
2023-03-07T09:23:35.029Z,74.63
2023-03-07T09:26:04.256Z,105.63
2023-03-07T09:28:32.395Z,59.33
2023-03-07T09:31:00.567Z,40.87
2023-03-07T09:33:29.940Z,57.13
2023-03-07T09:35:57.982Z,42.87
2023-03-07T09:38:26.060Z,37.10
2023-03-07T09:40:54.300Z,47.83
2023-03-07T09:43:23.768Z,41.57
2023-03-07T09:46:02.609Z,57.73
2023-03-07T09:48:55.657Z,54.30
2023-03-07T09:51:27.107Z,41.20
2023-03-07T09:53:58.755Z,41.23
2023-03-07T09:56:40.965Z,44.73
2023-03-07T09:59:22.729Z,54.00
2023-03-07T10:01:56.524Z,50.90
2023-03-07T10:04:33.366Z,41.67
2023-03-07T10:07:03.552Z,35.07
2023-03-07T10:09:31.738Z,19.63
2023-03-07T10:12:25.126Z,48.13
2023-03-07T10:15:09.566Z,53.70
2023-03-07T10:18:00.369Z,33.80
2023-03-07T10:20:40.356Z,62.13
2023-03-07T10:23:25.553Z,46.17
2023-03-07T10:25:57.970Z,61.90
2023-03-07T10:28:31.226Z,58.73
2023-03-07T10:31:03.317Z,94.90
2023-03-07T10:33:32.465Z,83.77
2023-03-07T10:36:08.120Z,58.17
2023-03-07T10:38:41.105Z,44.03
2023-03-07T10:41:15.817Z,67.37
2023-03-07T10:43:46.121Z,79.27
2023-03-07T10:46:25.172Z,56.43
2023-03-07T10:48:56.402Z,58.37
2023-03-07T10:51:52.801Z,54.07
2023-03-07T10:54:23.959Z,65.53
2023-03-07T10:57:10.429Z,49.53
2023-03-07T10:59:40.234Z,46.90
2023-03-07T11:02:30.137Z,40.67
2023-03-07T11:04:58.744Z,43.57
2023-03-07T11:07:31.288Z,35.17
2023-03-07T11:10:00.962Z,39.70
2023-03-07T11:12:32.108Z,53.23
2023-03-07T11:15:12.006Z,36.23
2023-03-07T11:17:43.632Z,42.57
2023-03-07T11:20:21.614Z,25.17
2023-03-07T11:22:52.169Z,38.57
2023-03-07T11:25:25.250Z,37.40
2023-03-07T11:27:56.073Z,31.17
2023-03-07T11:30:31.572Z,36.43
2023-03-07T11:33:11.568Z,33.67
2023-03-07T11:35:59.969Z,33.90
2023-03-07T11:38:46.838Z,33.77
2023-03-07T11:41:22.137Z,30.93
2023-03-07T11:44:01.517Z,35.77
2023-03-07T11:46:42.013Z,33.70
2023-03-07T11:49:25.586Z,21.83
2023-03-07T11:52:06.015Z,25.50
2023-03-07T11:54:44.090Z,27.03
2023-03-07T11:57:20.496Z,16.10
2023-03-07T12:00:21.085Z,17.77
2023-03-07T12:03:06.996Z,19.17
2023-03-07T12:05:43.658Z,27.80
2023-03-07T12:08:42.130Z,24.77
2023-03-07T12:11:21.866Z,27.43
2023-03-07T12:13:58.885Z,27.87
2023-03-07T12:16:32.014Z,18.67
2023-03-07T12:19:31.159Z,32.23
2023-03-07T12:22:13.418Z,22.27
2023-03-07T12:24:47.948Z,33.47
2023-03-07T12:27:25.006Z,28.43
2023-03-07T12:29:58.658Z,33.73
2023-03-07T12:32:28.603Z,27.93
2023-03-07T12:35:02.557Z,14.50
2023-03-07T12:37:34.949Z,33.43
2023-03-07T12:40:05.670Z,23.33
2023-03-07T12:42:38.322Z,30.97
2023-03-07T12:45:11.231Z,32.40
2023-03-07T12:47:57.123Z,22.87
2023-03-07T12:50:31.023Z,29.00
2023-03-07T12:53:05.219Z,30.67
2023-03-07T12:55:38.702Z,34.17
2023-03-07T12:58:13.319Z,23.17
2023-03-07T13:00:48.039Z,28.53
2023-03-07T13:03:24.518Z,16.83
2023-03-07T13:05:52.970Z,29.27
2023-03-07T13:08:24.782Z,31.20
2023-03-07T13:10:53.264Z,34.30
2023-03-07T13:13:58.602Z,18.17
2023-03-07T13:16:45.815Z,33.17
2023-03-07T13:19:52.291Z,28.87
2023-03-07T13:23:00.051Z,26.57
2023-03-07T13:25:49.020Z,28.83
2023-03-07T13:28:51.707Z,29.37
2023-03-07T13:31:46.204Z,24.03
2023-03-07T13:34:56.083Z,26.83
2023-03-07T13:37:53.768Z,38.43
2023-03-07T13:40:50.960Z,39.67
2023-03-07T13:44:02.345Z,35.90
2023-03-07T13:46:56.012Z,32.47
2023-03-07T13:49:49.128Z,33.37
2023-03-07T13:52:39.280Z,27.40
2023-03-07T13:55:25.942Z,37.83
2023-03-07T13:57:58.546Z,44.50
2023-03-07T14:00:38.361Z,35.93
2023-03-07T14:03:26.506Z,37.03
2023-03-07T14:05:56.358Z,33.60
2023-03-07T14:08:29.474Z,32.77
2023-03-07T14:10:59.086Z,35.03
2023-03-07T14:13:55.401Z,39.53
2023-03-07T14:16:47.288Z,26.80
2023-03-07T14:19:26.122Z,39.87
2023-03-07T14:22:00.885Z,28.97
2023-03-07T14:24:41.847Z,42.37
2023-03-07T14:27:16.510Z,40.17
2023-03-07T14:29:52.178Z,38.33
2023-03-07T14:32:23.312Z,26.43
2023-03-07T14:34:53.261Z,33.93
2023-03-07T14:37:26.471Z,39.80
2023-03-07T14:40:20.322Z,38.07
2023-03-07T14:42:58.058Z,30.70
2023-03-07T14:45:32.467Z,24.90
2023-03-07T14:48:32.309Z,33.87
2023-03-07T14:51:11.863Z,37.57
2023-03-07T14:53:40.249Z,36.57
2023-03-07T14:56:09.529Z,34.80
2023-03-07T14:58:48.945Z,44.90
2023-03-07T15:01:20.276Z,26.17
2023-03-07T15:03:49.487Z,34.30
2023-03-07T15:06:19.998Z,32.23
2023-03-07T15:08:49.475Z,34.70
2023-03-07T15:11:27.362Z,62.03
2023-03-07T15:14:00.844Z,32.87
2023-03-07T15:16:32.470Z,29.33
2023-03-07T15:19:05.044Z,57.77
2023-03-07T15:21:38.264Z,125.20
2023-03-07T15:24:06.869Z,87.73
2023-03-07T15:26:35.458Z,133.97
2023-03-07T15:29:10.220Z,39.23
2023-03-07T15:31:51.484Z,149.20
2023-03-07T15:34:25.111Z,200.70
2023-03-07T15:36:53.605Z,79.53
2023-03-07T15:39:33.194Z,140.40
2023-03-07T15:42:03.582Z,300.40
2023-03-07T15:44:33.600Z,40.77
2023-03-07T15:47:07.284Z,36.60
2023-03-07T15:49:42.068Z,20.70
2023-03-07T15:52:28.040Z,46.50
2023-03-07T15:54:58.144Z,24.23
2023-03-07T15:57:28.418Z,52.77
2023-03-07T16:00:00.227Z,51.57
2023-03-07T16:02:44.763Z,40.07
2023-03-07T16:05:36.098Z,50.57
2023-03-07T16:08:04.672Z,49.33
2023-03-07T16:10:33.102Z,57.83
2023-03-07T16:13:02.786Z,30.47
2023-03-07T16:15:32.619Z,21.57
2023-03-07T16:18:01.240Z,39.03
2023-03-07T16:20:29.999Z,14.07
2023-03-07T16:22:58.414Z,12.00
2023-03-07T16:25:29.661Z,34.30
2023-03-07T16:27:59.881Z,19.07
2023-03-07T16:30:29.768Z,22.70
2023-03-07T16:32:59.159Z,16.57
2023-03-07T16:35:29.076Z,40.20
2023-03-07T16:37:57.695Z,23.67
2023-03-07T16:40:27.045Z,22.80
2023-03-07T16:42:56.342Z,19.40
2023-03-07T16:45:27.765Z,25.47
2023-03-07T16:47:58.557Z,14.93
2023-03-07T16:50:28.208Z,25.93
2023-03-07T16:52:56.314Z,25.27
2023-03-07T16:55:25.047Z,19.63
2023-03-07T16:57:57.495Z,27.03
2023-03-07T17:00:27.033Z,16.77
2023-03-07T17:02:57.968Z,14.33
2023-03-07T17:05:30.008Z,15.60
2023-03-07T17:07:59.922Z,13.13
2023-03-07T17:10:28.973Z,13.27
2023-03-07T17:12:58.549Z,17.30
2023-03-07T17:15:30.845Z,16.17
2023-03-07T17:18:00.155Z,20.23
2023-03-07T17:20:30.068Z,13.60
2023-03-07T17:22:58.412Z,16.47
2023-03-07T17:25:27.313Z,12.70
2023-03-07T17:27:59.038Z,11.87
2023-03-07T17:30:29.815Z,15.23
2023-03-07T17:32:58.568Z,12.63
2023-03-07T17:35:28.162Z,9.67
2023-03-07T17:37:57.803Z,9.90
2023-03-07T17:40:25.894Z,10.63
2023-03-07T17:42:55.462Z,8.20
2023-03-07T17:45:24.264Z,11.40
2023-03-07T17:47:54.146Z,8.73
2023-03-07T17:50:24.610Z,7.90
2023-03-07T17:52:53.311Z,9.10
2023-03-07T17:55:25.010Z,12.33
2023-03-07T17:57:53.811Z,9.13
2023-03-07T18:00:23.028Z,5.20
2023-03-07T18:02:51.357Z,9.67
2023-03-07T18:05:20.276Z,8.77
2023-03-07T18:07:51.507Z,18.33
2023-03-07T18:10:19.983Z,61.67
2023-03-07T18:12:50.676Z,16.80
2023-03-07T18:15:21.787Z,7.90
2023-03-07T18:17:50.590Z,4.97
2023-03-07T18:20:19.769Z,42.17
2023-03-07T18:22:48.426Z,7.73
2023-03-07T18:25:18.627Z,9.50
2023-03-07T18:27:47.524Z,10.47
2023-03-07T18:30:17.822Z,9.33
2023-03-07T18:32:46.295Z,12.80
2023-03-07T18:35:16.713Z,7.40
2023-03-07T18:37:45.496Z,6.93
2023-03-07T18:40:14.571Z,7.73
2023-03-07T18:42:43.494Z,7.53
2023-03-07T18:45:12.610Z,7.57
2023-03-07T18:47:42.094Z,4.87
2023-03-07T18:50:11.866Z,3.30
2023-03-07T18:52:40.259Z,13.23
2023-03-07T18:55:09.035Z,12.17
2023-03-07T18:57:37.613Z,13.10
2023-03-07T19:00:06.978Z,8.27
2023-03-07T19:02:35.361Z,11.37
2023-03-07T19:05:05.055Z,10.13
2023-03-07T19:07:33.526Z,5.40
2023-03-07T19:10:01.906Z,6.80
2023-03-07T19:12:30.300Z,6.80
2023-03-07T19:14:58.640Z,7.57
2023-03-07T19:17:27.042Z,9.57
2023-03-07T19:19:59.270Z,8.37
2023-03-07T19:22:31.601Z,8.03
2023-03-07T19:25:00.019Z,10.73
2023-03-07T19:27:29.070Z,5.10
2023-03-07T19:29:57.423Z,8.77
2023-03-07T19:32:25.884Z,9.30
2023-03-07T19:34:55.497Z,8.40
2023-03-07T19:37:26.301Z,10.07
2023-03-07T19:39:56.021Z,10.50
2023-03-07T19:42:24.902Z,6.30
2023-03-07T19:44:53.561Z,7.20
2023-03-07T19:47:22.017Z,11.57
2023-03-07T19:49:50.396Z,9.47
2023-03-07T19:52:18.764Z,7.00
2023-03-07T19:54:47.110Z,9.30
2023-03-07T19:57:16.874Z,6.37
2023-03-07T19:59:45.554Z,11.23
2023-03-07T20:02:14.890Z,9.30
2023-03-07T20:04:43.188Z,11.67
2023-03-07T20:07:11.588Z,9.23
2023-03-07T20:09:39.947Z,6.73
2023-03-07T20:12:10.142Z,8.83
2023-03-07T20:14:42.914Z,12.93
2023-03-07T20:17:11.709Z,12.40
2023-03-07T20:19:40.147Z,12.77
2023-03-07T20:22:08.758Z,8.27
2023-03-07T20:24:37.162Z,10.07
2023-03-07T20:27:05.548Z,8.70
2023-03-07T20:29:33.946Z,10.37
2023-03-07T20:32:03.589Z,12.60
2023-03-07T20:34:32.008Z,14.50
2023-03-07T20:37:00.291Z,12.33
2023-03-07T20:39:28.658Z,15.00
2023-03-07T20:41:57.079Z,8.33
2023-03-07T20:44:25.402Z,9.73
2023-03-07T20:46:54.144Z,11.87
2023-03-07T20:49:23.560Z,10.27
2023-03-07T20:51:52.015Z,10.67
2023-03-07T20:54:20.360Z,12.80
2023-03-07T20:56:49.043Z,10.13
2023-03-07T20:59:19.429Z,10.70
2023-03-07T21:01:48.818Z,8.27
2023-03-07T21:04:18.579Z,8.60
2023-03-07T21:06:49.453Z,6.37
2023-03-07T21:09:18.968Z,11.90
2023-03-07T21:11:49.082Z,6.07
2023-03-07T21:14:18.308Z,8.70
2023-03-07T21:16:46.698Z,9.77
2023-03-07T21:19:15.391Z,10.10
2023-03-07T21:21:44.119Z,11.43
2023-03-07T21:24:15.513Z,11.10
2023-03-07T21:26:44.068Z,11.37
2023-03-07T21:29:13.960Z,10.30
2023-03-07T21:31:42.432Z,7.67
2023-03-07T21:34:14.062Z,9.60
2023-03-07T21:36:42.476Z,9.10
2023-03-07T21:39:10.918Z,12.47
2023-03-07T21:41:40.954Z,9.63
2023-03-07T21:44:09.536Z,10.30
2023-03-07T21:46:38.180Z,10.10
2023-03-07T21:49:06.660Z,10.03
2023-03-07T21:51:35.004Z,9.93
2023-03-07T21:54:03.536Z,11.53
2023-03-07T21:56:32.076Z,8.97
2023-03-07T21:59:01.863Z,9.70
2023-03-07T22:01:30.677Z,11.63
2023-03-07T22:04:00.351Z,10.17
2023-03-07T22:06:29.257Z,10.47
2023-03-07T22:08:57.786Z,9.83
2023-03-07T22:11:26.233Z,11.53
2023-03-07T22:13:54.597Z,13.27
2023-03-07T22:16:24.062Z,13.83
2023-03-07T22:18:56.814Z,9.07
2023-03-07T22:21:26.654Z,12.20
2023-03-07T22:23:58.177Z,9.87
2023-03-07T22:26:26.995Z,10.97
2023-03-07T22:28:55.729Z,11.53
2023-03-07T22:31:25.837Z,11.43
2023-03-07T22:33:54.290Z,13.17
2023-03-07T22:36:23.136Z,12.13
2023-03-07T22:38:55.333Z,12.23
2023-03-07T22:41:24.104Z,12.47
2023-03-07T22:43:52.663Z,11.87
2023-03-07T22:46:21.606Z,9.40
2023-03-07T22:48:53.469Z,10.17
2023-03-07T22:51:21.940Z,15.00
2023-03-07T22:53:50.229Z,13.33
2023-03-07T22:56:19.918Z,12.20
2023-03-07T22:58:48.207Z,14.00
2023-03-07T23:01:20.200Z,10.47
2023-03-07T23:03:48.961Z,13.13
2023-03-07T23:06:19.202Z,12.73
2023-03-07T23:08:48.619Z,13.67
2023-03-07T23:11:18.335Z,15.60
2023-03-07T23:13:46.985Z,12.70
2023-03-07T23:16:17.707Z,9.00
2023-03-07T23:18:46.974Z,11.73
2023-03-07T23:21:16.647Z,9.93
2023-03-07T23:23:46.209Z,18.23
2023-03-07T23:26:19.365Z,16.83
2023-03-07T23:28:47.763Z,13.03
2023-03-07T23:31:20.386Z,11.20
2023-03-07T23:33:49.131Z,10.07
2023-03-07T23:36:18.214Z,10.93
2023-03-07T23:38:47.891Z,18.80
2023-03-07T23:41:16.592Z,11.90
2023-03-07T23:43:46.338Z,10.23
2023-03-07T23:46:14.840Z,9.97
2023-03-07T23:48:43.522Z,17.17
2023-03-07T23:51:12.155Z,13.87
2023-03-07T23:53:40.775Z,12.40
2023-03-07T23:56:11.331Z,14.37
2023-03-07T23:58:39.835Z,12.53
